createdAt,value
2023-01-31T00:00:59.371Z,1018
2023-01-31T00:02:08.397Z,1018.1
2023-01-31T00:03:17.561Z,1018
2023-01-31T00:04:26.810Z,1018
2023-01-31T00:05:36.100Z,1018.1
2023-01-31T00:06:45.226Z,1018
2023-01-31T00:07:54.479Z,1018.1
2023-01-31T00:09:03.435Z,1018.1
2023-01-31T00:10:12.648Z,1018
2023-01-31T00:11:21.888Z,1018
2023-01-31T00:12:30.955Z,1018
2023-01-31T00:13:39.231Z,1018.1
2023-01-31T00:14:48.313Z,1018
2023-01-31T00:15:57.487Z,1018.1
2023-01-31T00:17:06.670Z,1018
2023-01-31T00:18:15.850Z,1018
2023-01-31T00:19:25.119Z,1018.1
2023-01-31T00:20:34.207Z,1018
2023-01-31T00:21:42.483Z,1018.1
2023-01-31T00:22:50.552Z,1018.1
2023-01-31T00:23:58.760Z,1018.1
2023-01-31T00:25:06.941Z,1018
2023-01-31T00:26:16.147Z,1018
2023-01-31T00:27:25.294Z,1017.9
2023-01-31T00:28:34.461Z,1018
2023-01-31T00:29:43.646Z,1018
2023-01-31T00:30:52.807Z,1018
2023-01-31T00:32:01.983Z,1018
2023-01-31T00:33:11.148Z,1017.9
2023-01-31T00:34:20.313Z,1018
2023-01-31T00:35:29.491Z,1018
2023-01-31T00:36:38.708Z,1017.9
2023-01-31T00:37:47.830Z,1018
2023-01-31T00:38:57.020Z,1018
2023-01-31T00:40:05.207Z,1018
2023-01-31T00:41:14.528Z,1018
2023-01-31T00:42:23.559Z,1018
2023-01-31T00:43:32.725Z,1017.9
2023-01-31T00:44:41.877Z,1017.9
2023-01-31T00:45:51.123Z,1017.9
2023-01-31T00:47:00.236Z,1018
2023-01-31T00:48:08.453Z,1017.9
2023-01-31T00:49:16.659Z,1018
2023-01-31T00:50:25.855Z,1017.9
2023-01-31T00:51:35.036Z,1018
2023-01-31T00:52:44.156Z,1018
2023-01-31T00:53:53.365Z,1018
2023-01-31T00:55:02.489Z,1018
2023-01-31T00:56:10.683Z,1018
2023-01-31T00:57:18.881Z,1018.1
2023-01-31T00:58:28.043Z,1018.1
2023-01-31T00:59:37.205Z,1018
2023-01-31T01:00:46.447Z,1018
2023-01-31T01:01:55.646Z,1018.1
2023-01-31T01:03:04.743Z,1018.1
2023-01-31T01:04:13.942Z,1018.1
2023-01-31T01:05:23.073Z,1018
2023-01-31T01:06:32.345Z,1018
2023-01-31T01:07:41.456Z,1018
2023-01-31T01:08:50.663Z,1018
2023-01-31T01:09:59.785Z,1018
2023-01-31T01:11:08.973Z,1018
2023-01-31T01:12:17.306Z,1018.1
2023-01-31T01:13:26.306Z,1018.1
2023-01-31T01:14:35.514Z,1018.1
2023-01-31T01:15:44.658Z,1018
2023-01-31T01:16:53.907Z,1018.1
2023-01-31T01:18:02.994Z,1018.1
2023-01-31T01:19:12.174Z,1018
2023-01-31T01:20:20.417Z,1018.1
2023-01-31T01:21:28.605Z,1018.1
2023-01-31T01:22:37.742Z,1018
2023-01-31T01:23:46.904Z,1018
2023-01-31T01:24:56.097Z,1018
2023-01-31T01:26:05.305Z,1017.9
2023-01-31T01:27:14.521Z,1018
2023-01-31T01:28:22.605Z,1017.9
2023-01-31T01:29:30.823Z,1018
2023-01-31T01:30:39.986Z,1018
2023-01-31T01:31:49.184Z,1018
2023-01-31T01:32:58.346Z,1018
2023-01-31T01:34:07.492Z,1018
2023-01-31T01:35:16.704Z,1018
2023-01-31T01:36:25.869Z,1018
2023-01-31T01:37:35.053Z,1018
2023-01-31T01:38:44.198Z,1018.1
2023-01-31T01:39:53.493Z,1018.1
2023-01-31T01:41:02.543Z,1018.1
2023-01-31T01:42:11.728Z,1018.1
2023-01-31T01:43:20.880Z,1018.1
2023-01-31T01:44:29.081Z,1018.1
2023-01-31T01:45:38.250Z,1018.1
2023-01-31T01:46:47.470Z,1018.1
2023-01-31T01:47:56.586Z,1018.1
2023-01-31T01:49:05.747Z,1018.1
2023-01-31T01:50:14.937Z,1018.1
2023-01-31T01:51:24.130Z,1018
2023-01-31T01:52:32.294Z,1018.1
2023-01-31T01:53:40.571Z,1018
2023-01-31T01:54:49.652Z,1018
2023-01-31T01:55:58.840Z,1018.1
2023-01-31T01:57:08.053Z,1018.1
2023-01-31T01:58:17.189Z,1018.1
2023-01-31T01:59:26.401Z,1018.1
2023-01-31T02:00:35.588Z,1018.1
2023-01-31T02:01:44.744Z,1018.1
2023-01-31T02:02:53.865Z,1018.1
2023-01-31T02:04:03.163Z,1018.2
2023-01-31T02:05:12.282Z,1018.1
2023-01-31T02:06:21.390Z,1018.1
2023-01-31T02:07:30.718Z,1018.1
2023-01-31T02:08:38.821Z,1018.2
2023-01-31T02:09:47.941Z,1018.1
2023-01-31T02:10:57.099Z,1018.2
2023-01-31T02:12:06.316Z,1018.2
2023-01-31T02:13:15.441Z,1018.3
2023-01-31T02:14:24.719Z,1018.3
2023-01-31T02:15:33.780Z,1018.2
2023-01-31T02:16:42.967Z,1018.3
2023-01-31T02:17:51.176Z,1018.4
2023-01-31T02:19:00.464Z,1018.4
2023-01-31T02:20:08.540Z,1018.4
2023-01-31T02:21:16.839Z,1018.5
2023-01-31T02:22:26.002Z,1018.5
2023-01-31T02:23:34.134Z,1018.5
2023-01-31T02:24:42.322Z,1018.6
2023-01-31T02:25:51.435Z,1018.5
2023-01-31T02:27:00.615Z,1018.6
2023-01-31T02:28:09.877Z,1018.6
2023-01-31T02:29:19.026Z,1018.5
2023-01-31T02:30:28.276Z,1018.6
2023-01-31T02:31:37.364Z,1018.5
2023-01-31T02:32:46.474Z,1018.5
2023-01-31T02:33:55.679Z,1018.6
2023-01-31T02:35:04.871Z,1018.6
2023-01-31T02:36:14.000Z,1018.6
2023-01-31T02:37:23.191Z,1018.6
2023-01-31T02:38:32.373Z,1018.5
2023-01-31T02:39:40.639Z,1018.5
2023-01-31T02:40:49.731Z,1018.6
2023-01-31T02:41:58.986Z,1018.5
2023-01-31T02:43:08.111Z,1018.5
2023-01-31T02:44:17.310Z,1018.5
2023-01-31T02:45:26.447Z,1018.5
2023-01-31T02:46:35.730Z,1018.4
2023-01-31T02:47:44.864Z,1018.4
2023-01-31T02:48:53.072Z,1018.4
2023-01-31T02:50:02.110Z,1018.4
2023-01-31T02:51:10.292Z,1018.5
2023-01-31T02:52:19.612Z,1018.4
2023-01-31T02:53:28.860Z,1018.5
2023-01-31T02:54:36.899Z,1018.4
2023-01-31T02:55:45.038Z,1018.4
2023-01-31T02:56:54.301Z,1018.4
2023-01-31T02:58:03.492Z,1018.4
2023-01-31T02:59:12.699Z,1018.4
2023-01-31T03:00:21.732Z,1018.3
2023-01-31T03:01:31.036Z,1018.4
2023-01-31T03:02:40.246Z,1018.3
2023-01-31T03:03:49.239Z,1018.3
2023-01-31T03:04:58.569Z,1018.3
2023-01-31T03:06:07.727Z,1018.1
2023-01-31T03:07:16.940Z,1018.1
2023-01-31T03:08:26.125Z,1018.1
2023-01-31T03:09:35.223Z,1018.1
2023-01-31T03:10:43.427Z,1018.1
2023-01-31T03:11:52.522Z,1018
2023-01-31T03:13:01.637Z,1018
2023-01-31T03:14:10.830Z,1018
2023-01-31T03:15:20.004Z,1017.9
2023-01-31T03:16:29.318Z,1017.9
2023-01-31T03:17:38.444Z,1017.9
2023-01-31T03:18:47.644Z,1017.9
2023-01-31T03:19:55.853Z,1017.8
2023-01-31T03:21:04.017Z,1017.8
2023-01-31T03:22:12.072Z,1017.8
2023-01-31T03:23:20.348Z,1017.8
2023-01-31T03:24:29.637Z,1017.7
2023-01-31T03:25:38.766Z,1017.7
2023-01-31T03:26:47.934Z,1017.7
2023-01-31T03:27:57.123Z,1017.7
2023-01-31T03:29:06.138Z,1017.7
2023-01-31T03:30:15.307Z,1017.7
2023-01-31T03:31:24.515Z,1017.7
2023-01-31T03:32:33.704Z,1017.7
2023-01-31T03:33:43.007Z,1017.7
2023-01-31T03:34:52.184Z,1017.6
2023-01-31T03:36:01.348Z,1017.7
2023-01-31T03:37:10.427Z,1017.6
2023-01-31T03:38:18.649Z,1017.7
2023-01-31T03:39:27.749Z,1017.7
2023-01-31T03:40:36.937Z,1017.7
2023-01-31T03:41:46.097Z,1017.7
2023-01-31T03:42:55.391Z,1017.7
2023-01-31T03:44:04.502Z,1017.7
2023-01-31T03:45:13.658Z,1017.6
2023-01-31T03:46:21.769Z,1017.6
2023-01-31T03:47:29.981Z,1017.6
2023-01-31T03:48:39.294Z,1017.6
2023-01-31T03:49:48.376Z,1017.6
2023-01-31T03:50:56.559Z,1017.6
2023-01-31T03:52:04.791Z,1017.6
2023-01-31T03:53:14.067Z,1017.6
2023-01-31T03:54:23.133Z,1017.7
2023-01-31T03:55:32.313Z,1017.7
2023-01-31T03:56:41.506Z,1017.6
2023-01-31T03:57:50.683Z,1017.6
2023-01-31T03:58:59.792Z,1017.5
2023-01-31T04:00:09.041Z,1017.5
2023-01-31T04:01:18.245Z,1017.5
2023-01-31T04:02:27.368Z,1017.5
2023-01-31T04:03:36.519Z,1017.5
2023-01-31T04:04:45.593Z,1017.5
2023-01-31T04:05:54.761Z,1017.5
2023-01-31T04:07:03.158Z,1017.5
2023-01-31T04:08:12.256Z,1017.4
2023-01-31T04:09:21.307Z,1017.4
2023-01-31T04:10:30.524Z,1017.4
2023-01-31T04:11:39.691Z,1017.4
2023-01-31T04:12:48.971Z,1017.4
2023-01-31T04:13:58.172Z,1017.4
2023-01-31T04:15:06.189Z,1017.4
2023-01-31T04:16:14.510Z,1017.4
2023-01-31T04:17:22.633Z,1017.4
2023-01-31T04:18:30.939Z,1017.4
2023-01-31T04:19:40.095Z,1017.3
2023-01-31T04:20:49.138Z,1017.4
2023-01-31T04:21:58.419Z,1017.4
2023-01-31T04:23:07.597Z,1017.4
2023-01-31T04:24:16.742Z,1017.4
2023-01-31T04:25:25.874Z,1017.3
2023-01-31T04:26:35.127Z,1017.2
2023-01-31T04:27:44.189Z,1017.3
2023-01-31T04:28:53.491Z,1017.2
2023-01-31T04:30:02.496Z,1017.2
2023-01-31T04:31:11.644Z,1017.3
2023-01-31T04:32:20.951Z,1017.2
2023-01-31T04:33:29.160Z,1017.3
2023-01-31T04:34:38.327Z,1017.3
2023-01-31T04:35:47.512Z,1017.3
2023-01-31T04:36:56.553Z,1017.3
2023-01-31T04:38:05.716Z,1017.3
2023-01-31T04:39:15.038Z,1017.3
2023-01-31T04:40:24.169Z,1017.3
2023-01-31T04:41:32.410Z,1017.3
2023-01-31T04:42:40.545Z,1017.4
2023-01-31T04:43:48.822Z,1017.3
2023-01-31T04:44:57.008Z,1017.3
2023-01-31T04:46:06.127Z,1017.4
2023-01-31T04:47:15.412Z,1017.4
2023-01-31T04:48:24.521Z,1017.3
2023-01-31T04:49:33.697Z,1017.3
2023-01-31T04:50:42.861Z,1017.4
2023-01-31T04:51:52.035Z,1017.3
2023-01-31T04:53:01.199Z,1017.3
2023-01-31T04:54:10.325Z,1017.2
2023-01-31T04:55:19.410Z,1017.3
2023-01-31T04:56:28.599Z,1017.3
2023-01-31T04:57:37.836Z,1017.2
2023-01-31T04:58:46.969Z,1017.2
2023-01-31T04:59:55.258Z,1017.1
2023-01-31T05:01:04.396Z,1017.1
2023-01-31T05:02:13.544Z,1017
2023-01-31T05:03:22.611Z,1017
2023-01-31T05:04:31.972Z,1017
2023-01-31T05:05:40.960Z,1017
2023-01-31T05:06:50.257Z,1016.9
2023-01-31T05:07:59.457Z,1016.9
2023-01-31T05:09:07.488Z,1016.9
2023-01-31T05:10:15.787Z,1016.9
2023-01-31T05:11:24.853Z,1016.8
2023-01-31T05:12:34.159Z,1016.9
2023-01-31T05:13:43.296Z,1016.8
2023-01-31T05:14:52.533Z,1016.7
2023-01-31T05:17:10.772Z,1016.7
2023-01-31T05:18:20.001Z,1016.6
2023-01-31T05:19:28.129Z,1016.5
2023-01-31T05:20:36.382Z,1016.5
2023-01-31T05:21:45.446Z,1016.5
2023-01-31T05:22:54.630Z,1016.5
2023-01-31T05:24:03.816Z,1016.5
2023-01-31T05:25:13.100Z,1016.4
2023-01-31T05:26:22.148Z,1016.4
2023-01-31T05:27:31.398Z,1016.3
2023-01-31T05:28:40.610Z,1016.4
2023-01-31T05:29:49.711Z,1016.3
2023-01-31T05:30:58.948Z,1016.3
2023-01-31T05:32:08.042Z,1016.4
2023-01-31T05:33:17.335Z,1016.4
2023-01-31T05:34:26.566Z,1016.4
2023-01-31T05:35:34.614Z,1016.5
2023-01-31T05:36:43.762Z,1016.4
2023-01-31T05:37:52.896Z,1016.4
2023-01-31T05:39:02.060Z,1016.4
2023-01-31T05:40:11.222Z,1016.4
2023-01-31T05:41:20.411Z,1016.4
2023-01-31T05:42:29.657Z,1016.4
2023-01-31T05:43:37.815Z,1016.4
2023-01-31T05:45:55.318Z,1016.4
2023-01-31T05:47:04.328Z,1016.3
2023-01-31T05:48:12.647Z,1016.2
2023-01-31T05:49:20.895Z,1016.2
2023-01-31T05:50:29.856Z,1016.3
2023-01-31T05:51:39.171Z,1016.2
2023-01-31T05:52:48.266Z,1016.2
2023-01-31T05:53:57.483Z,1016.1
2023-01-31T05:55:06.692Z,1016
2023-01-31T05:57:25.085Z,1016
2023-01-31T05:58:34.083Z,1016
2023-01-31T05:59:43.415Z,1015.9
2023-01-31T06:00:52.580Z,1015.9
2023-01-31T06:02:01.638Z,1016
2023-01-31T06:03:10.928Z,1016
2023-01-31T06:04:19.114Z,1016
2023-01-31T06:05:28.125Z,1016
2023-01-31T06:06:37.302Z,1016.1
2023-01-31T06:07:46.531Z,1016.1
2023-01-31T06:08:55.736Z,1016.1
2023-01-31T06:10:04.852Z,1016.1
2023-01-31T06:11:14.084Z,1016.2
2023-01-31T06:12:23.212Z,1016.1
2023-01-31T06:13:31.489Z,1016.3
2023-01-31T06:14:39.700Z,1016.2
2023-01-31T06:15:47.828Z,1016.2
2023-01-31T06:16:56.085Z,1016.1
2023-01-31T06:18:05.233Z,1016.2
2023-01-31T06:19:14.271Z,1016.2
2023-01-31T06:20:23.473Z,1016.2
2023-01-31T06:21:32.698Z,1016.3
2023-01-31T06:22:41.792Z,1016.3
2023-01-31T06:23:51.140Z,1016.2
2023-01-31T06:25:00.221Z,1016.3
2023-01-31T06:26:09.363Z,1016.3
2023-01-31T06:27:18.667Z,1016.3
2023-01-31T06:28:27.772Z,1016.2
2023-01-31T06:29:36.966Z,1016.3
2023-01-31T06:30:46.058Z,1016.2
2023-01-31T06:31:54.375Z,1016.2
2023-01-31T06:34:12.578Z,1016.1
2023-01-31T06:35:21.864Z,1016.1
2023-01-31T06:36:31.025Z,1016
2023-01-31T06:37:40.136Z,1016.1
2023-01-31T06:38:49.307Z,1016.1
2023-01-31T06:39:58.412Z,1016.1
2023-01-31T06:41:06.592Z,1016.1
2023-01-31T06:42:14.791Z,1016.1
2023-01-31T06:43:22.992Z,1016
2023-01-31T06:44:31.299Z,1016.1
2023-01-31T06:45:40.430Z,1016.2
2023-01-31T06:46:49.517Z,1016.2
2023-01-31T06:47:58.814Z,1016.2
2023-01-31T06:49:08.009Z,1016.2
2023-01-31T06:50:17.108Z,1016.2
2023-01-31T06:51:26.265Z,1016.2
2023-01-31T06:52:35.381Z,1016.1
2023-01-31T06:53:44.611Z,1016.2
2023-01-31T06:54:53.765Z,1016.2
2023-01-31T06:56:03.036Z,1016.2
2023-01-31T06:57:12.136Z,1016.2
2023-01-31T06:58:21.321Z,1016.2
2023-01-31T06:59:30.416Z,1016.2
2023-01-31T07:00:38.654Z,1016.2
2023-01-31T07:01:47.818Z,1016.1
2023-01-31T07:02:56.958Z,1016.1
2023-01-31T07:04:06.255Z,1016.2
2023-01-31T07:05:15.430Z,1016.2
2023-01-31T07:06:24.617Z,1016.2
2023-01-31T07:07:32.827Z,1016.2
2023-01-31T07:08:40.862Z,1016.1
2023-01-31T07:09:50.163Z,1016.2
2023-01-31T07:10:59.252Z,1016.2
2023-01-31T07:12:07.393Z,1016.2
2023-01-31T07:13:15.654Z,1016.1
2023-01-31T07:14:24.756Z,1016
2023-01-31T07:15:34.072Z,1016.1
2023-01-31T07:16:43.352Z,1016.1
2023-01-31T07:17:52.392Z,1016.1
2023-01-31T07:19:01.608Z,1016
2023-01-31T07:20:10.795Z,1016.1
2023-01-31T07:21:19.877Z,1016.2
2023-01-31T07:22:28.969Z,1016.1
2023-01-31T07:23:38.170Z,1016.1
2023-01-31T07:24:47.458Z,1015.9
2023-01-31T07:25:56.645Z,1016
2023-01-31T07:27:05.650Z,1015.9
2023-01-31T07:28:13.859Z,1016
2023-01-31T07:29:23.028Z,1016
2023-01-31T07:30:32.193Z,1015.9
2023-01-31T07:31:41.379Z,1015.9
2023-01-31T07:32:50.706Z,1016
2023-01-31T07:35:08.909Z,1016
2023-01-31T07:36:18.076Z,1016.1
2023-01-31T07:38:35.608Z,1015.9
2023-01-31T07:39:43.779Z,1015.8
2023-01-31T07:40:51.985Z,1015.9
2023-01-31T07:42:00.144Z,1015.8
2023-01-31T07:43:09.180Z,1015.8
2023-01-31T07:44:17.406Z,1015.9
2023-01-31T07:45:25.663Z,1015.9
2023-01-31T07:46:34.844Z,1015.9
2023-01-31T07:47:43.993Z,1015.9
2023-01-31T07:48:53.075Z,1015.8
2023-01-31T07:51:11.616Z,1015.9
2023-01-31T07:52:20.774Z,1015.8
2023-01-31T07:53:30.487Z,1015.9
2023-01-31T07:54:38.942Z,1015.7
2023-01-31T07:55:48.233Z,1015.7
2023-01-31T07:56:57.419Z,1015.7
2023-01-31T07:58:06.623Z,1015.7
2023-01-31T07:59:15.644Z,1015.7
2023-01-31T08:00:24.845Z,1015.7
2023-01-31T08:01:33.117Z,1015.6
2023-01-31T08:02:42.312Z,1015.6
2023-01-31T08:03:51.421Z,1015.7
2023-01-31T08:05:00.579Z,1015.6
2023-01-31T08:06:09.862Z,1015.6
2023-01-31T08:07:19.033Z,1015.5
2023-01-31T08:08:28.171Z,1015.5
2023-01-31T08:09:37.221Z,1015.5
2023-01-31T08:10:46.463Z,1015.5
2023-01-31T08:11:55.652Z,1015.5
2023-01-31T08:13:04.779Z,1015.5
2023-01-31T08:14:14.057Z,1015.5
2023-01-31T08:15:23.192Z,1015.5
2023-01-31T08:16:31.434Z,1015.5
2023-01-31T08:17:40.508Z,1015.4
2023-01-31T08:18:49.668Z,1015.5
2023-01-31T08:19:58.828Z,1015.5
2023-01-31T08:21:08.072Z,1015.6
2023-01-31T08:22:17.164Z,1015.5
2023-01-31T08:23:26.309Z,1015.3
2023-01-31T08:24:35.535Z,1015.3
2023-01-31T08:26:53.927Z,1015.3
2023-01-31T08:28:03.013Z,1015.4
2023-01-31T08:29:12.293Z,1015.3
2023-01-31T08:30:21.448Z,1015.4
2023-01-31T08:31:29.747Z,1015.4
2023-01-31T08:32:38.826Z,1015.3
2023-01-31T08:33:47.881Z,1015.3
2023-01-31T08:34:57.183Z,1015.3
2023-01-31T08:36:05.428Z,1015.5
2023-01-31T08:37:13.457Z,1015.2
2023-01-31T08:38:22.641Z,1015.2
2023-01-31T08:39:31.861Z,1015
2023-01-31T08:40:40.147Z,1015
2023-01-31T08:41:48.227Z,1015
2023-01-31T08:42:57.505Z,1015
2023-01-31T08:44:06.556Z,1014.9
2023-01-31T08:45:15.891Z,1014.9
2023-01-31T08:46:24.927Z,1015
2023-01-31T08:47:34.126Z,1015
2023-01-31T08:48:43.203Z,1015
2023-01-31T08:49:52.380Z,1014.9
2023-01-31T08:51:01.606Z,1014.9
2023-01-31T08:52:10.888Z,1014.9
2023-01-31T08:53:20.012Z,1014.9
2023-01-31T08:54:29.077Z,1014.9
2023-01-31T08:55:38.377Z,1014.7
2023-01-31T08:56:46.565Z,1014.8
2023-01-31T08:57:55.688Z,1014.8
2023-01-31T08:59:04.937Z,1014.8
2023-01-31T09:00:14.083Z,1014.8
2023-01-31T09:01:23.142Z,1014.7
2023-01-31T09:02:32.308Z,1014.7
2023-01-31T09:03:41.617Z,1014.6
2023-01-31T09:04:49.733Z,1014.6
2023-01-31T09:05:57.996Z,1014.8
2023-01-31T09:07:07.191Z,1014.7
2023-01-31T09:08:16.345Z,1014.7
2023-01-31T09:09:24.548Z,1014.7
2023-01-31T09:10:32.649Z,1014.7
2023-01-31T09:11:41.800Z,1014.7
2023-01-31T09:12:51.036Z,1014.6
2023-01-31T09:14:00.308Z,1014.7
2023-01-31T09:15:09.268Z,1014.6
2023-01-31T09:16:18.560Z,1014.6
2023-01-31T09:17:27.683Z,1014.6
2023-01-31T09:18:36.929Z,1014.5
2023-01-31T09:19:46.083Z,1014.5
2023-01-31T09:20:55.238Z,1014.6
2023-01-31T09:22:04.466Z,1014.6
2023-01-31T09:25:31.849Z,1014.8
2023-01-31T09:26:40.161Z,1014.7
2023-01-31T09:27:48.361Z,1014.7
2023-01-31T09:28:57.377Z,1014.8
2023-01-31T09:30:06.617Z,1014.6
2023-01-31T09:31:15.834Z,1014.6
2023-01-31T09:32:24.894Z,1014.6
2023-01-31T09:33:34.248Z,1014.6
2023-01-31T09:34:43.314Z,1014.6
2023-01-31T09:35:52.412Z,1014.5
2023-01-31T09:37:01.707Z,1014.5
2023-01-31T09:38:10.817Z,1014.6
2023-01-31T09:39:19.957Z,1014.5
2023-01-31T09:40:28.140Z,1014.4
2023-01-31T09:41:36.478Z,1014.5
2023-01-31T09:42:45.681Z,1014.4
2023-01-31T09:43:54.693Z,1014.4
2023-01-31T09:45:03.865Z,1014.3
2023-01-31T09:46:13.089Z,1014.4
2023-01-31T09:47:22.329Z,1014.4
2023-01-31T09:48:31.458Z,1014.4
2023-01-31T09:49:40.573Z,1014.4
2023-01-31T09:50:49.815Z,1014.5
2023-01-31T09:51:59.010Z,1014.5
2023-01-31T09:53:08.176Z,1014.5
2023-01-31T09:54:17.203Z,1014.5
2023-01-31T09:55:26.404Z,1014.5
2023-01-31T09:56:35.664Z,1014.6
2023-01-31T09:57:43.743Z,1014.4
2023-01-31T09:58:52.925Z,1014.5
2023-01-31T10:00:02.088Z,1014.5
2023-01-31T10:01:11.260Z,1014.5
2023-01-31T10:02:20.434Z,1014.5
2023-01-31T10:03:29.711Z,1014.5
2023-01-31T10:04:37.891Z,1014.6
2023-01-31T10:05:46.100Z,1014.6
2023-01-31T10:06:55.325Z,1014.7
2023-01-31T10:08:04.400Z,1014.6
2023-01-31T10:09:13.705Z,1014.7
2023-01-31T10:10:21.707Z,1014.6
2023-01-31T10:11:30.044Z,1014.6
2023-01-31T10:12:39.141Z,1014.6
2023-01-31T10:13:48.362Z,1014.6
2023-01-31T10:14:57.513Z,1014.6
2023-01-31T10:16:06.697Z,1014.5
2023-01-31T10:17:15.915Z,1014.5
2023-01-31T10:18:24.920Z,1014.5
2023-01-31T10:19:34.256Z,1014.5
2023-01-31T10:20:43.403Z,1014.5
2023-01-31T10:21:52.641Z,1014.4
2023-01-31T10:23:01.767Z,1014.3
2023-01-31T10:24:10.872Z,1014.3
2023-01-31T10:25:20.056Z,1014.4
2023-01-31T10:26:28.161Z,1014.4
2023-01-31T10:27:37.363Z,1014.3
2023-01-31T10:28:46.634Z,1014.3
2023-01-31T10:29:55.757Z,1014.2
2023-01-31T10:31:04.834Z,1014.3
2023-01-31T10:32:14.075Z,1014.2
2023-01-31T10:33:23.314Z,1014.2
2023-01-31T10:34:31.389Z,1014.1
2023-01-31T10:35:39.598Z,1014.3
2023-01-31T10:36:48.830Z,1014.2
2023-01-31T10:37:58.107Z,1014.1
2023-01-31T10:39:07.211Z,1014.1
2023-01-31T10:40:15.322Z,1014.1
2023-01-31T10:41:23.565Z,1014.1
2023-01-31T10:42:32.687Z,1014.1
2023-01-31T10:43:41.818Z,1014
2023-01-31T10:44:51.139Z,1014.1
2023-01-31T10:47:09.369Z,1014.1
2023-01-31T10:48:18.625Z,1014.1
2023-01-31T10:49:27.766Z,1014.1
2023-01-31T10:50:36.916Z,1014.1
2023-01-31T10:51:46.151Z,1014
2023-01-31T10:52:55.336Z,1014
2023-01-31T10:54:04.381Z,1014
2023-01-31T10:55:13.638Z,1013.9
2023-01-31T10:56:21.858Z,1013.9
2023-01-31T10:57:31.041Z,1013.8
2023-01-31T10:58:40.111Z,1013.8
2023-01-31T10:59:49.405Z,1013.8
2023-01-31T11:00:58.515Z,1013.8
2023-01-31T11:02:07.700Z,1013.8
2023-01-31T11:03:16.922Z,1013.9
2023-01-31T11:04:26.038Z,1013.8
2023-01-31T11:05:34.177Z,1013.8
2023-01-31T11:06:42.411Z,1013.8
2023-01-31T11:07:51.669Z,1013.8
2023-01-31T11:09:00.846Z,1013.7
2023-01-31T11:10:08.977Z,1013.8
2023-01-31T11:11:17.174Z,1013.9
2023-01-31T11:12:26.274Z,1013.7
2023-01-31T11:13:35.490Z,1013.8
2023-01-31T11:14:44.602Z,1013.7
2023-01-31T11:15:53.743Z,1013.5
2023-01-31T11:17:03.013Z,1013.6
2023-01-31T11:18:12.099Z,1013.5
2023-01-31T11:19:21.347Z,1013.5
2023-01-31T11:20:30.458Z,1013.6
2023-01-31T11:21:39.658Z,1013.5
2023-01-31T11:22:48.765Z,1013.4
2023-01-31T11:23:58.120Z,1013.5
2023-01-31T11:25:07.231Z,1013.5
2023-01-31T11:26:15.348Z,1013.5
2023-01-31T11:27:24.481Z,1013.6
2023-01-31T11:28:33.820Z,1013.3
2023-01-31T11:29:42.919Z,1013.6
2023-01-31T11:30:52.066Z,1013.6
2023-01-31T11:32:01.194Z,1013.5
2023-01-31T11:33:09.364Z,1013.5
2023-01-31T11:34:18.530Z,1013.4
2023-01-31T11:35:27.713Z,1013.5
2023-01-31T11:36:37.008Z,1013.5
2023-01-31T11:37:45.091Z,1013.6
2023-01-31T11:40:02.517Z,1013.6
2023-01-31T11:41:11.697Z,1013.6
2023-01-31T11:42:20.778Z,1013.6
2023-01-31T11:43:30.034Z,1013.6
2023-01-31T11:44:39.119Z,1013.7
2023-01-31T11:45:48.317Z,1013.6
2023-01-31T11:46:57.546Z,1013.5
2023-01-31T11:48:05.774Z,1013.4
2023-01-31T11:49:13.972Z,1013.4
2023-01-31T11:50:23.182Z,1013.5
2023-01-31T11:51:32.288Z,1013.5
2023-01-31T11:52:41.507Z,1013.5
2023-01-31T11:53:50.657Z,1013.5
2023-01-31T11:54:59.798Z,1013.3
2023-01-31T11:56:08.919Z,1013.3
2023-01-31T11:57:18.240Z,1013.2
2023-01-31T11:58:27.276Z,1013.2
2023-01-31T11:59:36.434Z,1013.3
2023-01-31T12:00:45.611Z,1013.2
2023-01-31T12:01:54.801Z,1013
2023-01-31T12:03:04.005Z,1013
2023-01-31T12:04:12.247Z,1013
2023-01-31T12:05:21.446Z,1013
2023-01-31T12:06:30.513Z,1012.9
2023-01-31T12:07:39.642Z,1013
2023-01-31T12:08:48.881Z,1013
2023-01-31T12:09:58.085Z,1012.8
2023-01-31T12:11:07.266Z,1012.9
2023-01-31T12:12:16.325Z,1012.9
2023-01-31T12:13:25.672Z,1012.8
2023-01-31T12:14:33.839Z,1012.9
2023-01-31T12:15:41.922Z,1012.8
2023-01-31T12:16:51.094Z,1012.7
2023-01-31T12:17:59.410Z,1012.7
2023-01-31T12:19:07.518Z,1012.7
2023-01-31T12:20:16.726Z,1012.8
2023-01-31T12:21:25.984Z,1012.8
2023-01-31T12:22:35.101Z,1012.8
2023-01-31T12:23:44.225Z,1012.8
2023-01-31T12:24:53.463Z,1012.9
2023-01-31T12:26:02.544Z,1012.9
2023-01-31T12:27:11.815Z,1012.8
2023-01-31T12:28:20.897Z,1012.9
2023-01-31T12:29:30.072Z,1012.8
2023-01-31T12:30:39.257Z,1013
2023-01-31T12:31:48.362Z,1012.9
2023-01-31T12:32:57.508Z,1012.8
2023-01-31T12:34:05.727Z,1012.7
2023-01-31T12:35:14.998Z,1012.8
2023-01-31T12:36:24.168Z,1012.7
2023-01-31T12:37:33.318Z,1012.8
2023-01-31T12:38:42.409Z,1012.8
2023-01-31T12:39:51.655Z,1012.8
2023-01-31T12:41:00.860Z,1012.8
2023-01-31T12:42:08.937Z,1012.7
2023-01-31T12:43:17.259Z,1012.8
2023-01-31T12:44:26.374Z,1012.7
2023-01-31T12:45:35.505Z,1012.7
2023-01-31T12:46:43.856Z,1012.8
2023-01-31T12:47:51.955Z,1012.8
2023-01-31T12:49:01.185Z,1012.8
2023-01-31T12:50:10.290Z,1012.8
2023-01-31T12:51:19.542Z,1012.9
2023-01-31T12:52:28.651Z,1012.9
2023-01-31T12:53:37.864Z,1012.9
2023-01-31T12:54:46.940Z,1012.9
2023-01-31T12:55:56.148Z,1012.8
2023-01-31T12:57:05.296Z,1012.9
2023-01-31T12:58:14.528Z,1012.9
2023-01-31T12:59:23.612Z,1012.9
2023-01-31T13:00:32.876Z,1012.9
2023-01-31T13:01:42.137Z,1012.9
2023-01-31T13:02:50.090Z,1012.9
2023-01-31T13:03:59.437Z,1012.9
2023-01-31T13:05:08.527Z,1012.9
2023-01-31T13:06:17.753Z,1012.9
2023-01-31T13:07:26.962Z,1013
2023-01-31T13:08:36.127Z,1012.9
2023-01-31T13:09:45.319Z,1012.9
2023-01-31T13:10:54.428Z,1012.9
2023-01-31T13:12:03.506Z,1013
2023-01-31T13:13:12.838Z,1013
2023-01-31T13:14:22.017Z,1013
2023-01-31T13:15:31.157Z,1012.9
2023-01-31T13:16:40.354Z,1012.9
2023-01-31T13:17:48.482Z,1012.9
2023-01-31T13:18:57.734Z,1012.9
2023-01-31T13:20:06.836Z,1013
2023-01-31T13:21:15.894Z,1012.9
2023-01-31T13:23:34.343Z,1012.9
2023-01-31T13:24:43.489Z,1012.8
2023-01-31T13:25:52.822Z,1012.7
2023-01-31T13:27:01.775Z,1012.8
2023-01-31T13:28:11.077Z,1012.7
2023-01-31T13:29:20.211Z,1012.7
2023-01-31T13:30:29.458Z,1012.8
2023-01-31T13:31:38.432Z,1012.6
2023-01-31T13:32:46.704Z,1012.7
2023-01-31T13:33:55.876Z,1012.7
2023-01-31T13:35:04.966Z,1012.7
2023-01-31T13:36:14.268Z,1012.7
2023-01-31T13:37:23.522Z,1012.7
2023-01-31T13:38:32.583Z,1012.8
2023-01-31T13:39:41.854Z,1012.8
2023-01-31T13:40:50.994Z,1012.7
2023-01-31T13:42:00.198Z,1012.7
2023-01-31T13:43:09.318Z,1012.7
2023-01-31T13:44:18.337Z,1012.6
2023-01-31T13:45:27.510Z,1012.6
2023-01-31T13:46:36.802Z,1012.6
2023-01-31T13:47:45.043Z,1012.7
2023-01-31T13:48:54.042Z,1012.6
2023-01-31T13:50:03.219Z,1012.6
2023-01-31T13:51:12.437Z,1012.6
2023-01-31T13:52:21.762Z,1012.6
2023-01-31T13:53:30.899Z,1012.7
2023-01-31T13:54:40.071Z,1012.7
2023-01-31T13:55:49.155Z,1012.7
2023-01-31T13:56:58.411Z,1012.7
2023-01-31T13:58:07.449Z,1012.7
2023-01-31T13:59:16.736Z,1012.7
2023-01-31T14:00:25.793Z,1012.5
2023-01-31T14:01:35.138Z,1012.5
2023-01-31T14:02:43.269Z,1012.5
2023-01-31T14:03:52.476Z,1012.5
2023-01-31T14:05:01.544Z,1012.4
2023-01-31T14:06:10.838Z,1012.5
2023-01-31T14:07:19.894Z,1012.6
2023-01-31T14:08:29.179Z,1012.5
2023-01-31T14:09:40.178Z,1012.6
2023-01-31T14:10:47.339Z,1012.6
2023-01-31T14:11:56.693Z,1012.5
2023-01-31T14:14:14.042Z,1012.6
2023-01-31T14:15:22.151Z,1012.6
2023-01-31T14:16:30.428Z,1012.6
2023-01-31T14:17:38.651Z,1012.6
2023-01-31T14:18:46.649Z,1012.6
2023-01-31T14:19:56.022Z,1012.7
2023-01-31T14:21:05.144Z,1012.7
2023-01-31T14:22:14.311Z,1012.7
2023-01-31T14:23:23.417Z,1012.7
2023-01-31T14:24:32.597Z,1012.6
2023-01-31T14:25:41.885Z,1012.7
2023-01-31T14:26:50.862Z,1012.7
2023-01-31T14:28:00.195Z,1012.7
2023-01-31T14:29:09.401Z,1012.7
2023-01-31T14:30:18.390Z,1012.7
2023-01-31T14:31:27.764Z,1012.6
2023-01-31T14:32:36.746Z,1012.7
2023-01-31T14:33:45.037Z,1012.6
2023-01-31T14:34:54.084Z,1012.7
2023-01-31T14:36:03.422Z,1012.6
2023-01-31T14:37:12.416Z,1012.7
2023-01-31T14:38:21.764Z,1012.7
2023-01-31T14:39:30.895Z,1012.7
2023-01-31T14:40:40.013Z,1012.7
2023-01-31T14:41:48.129Z,1012.7
2023-01-31T14:42:56.404Z,1012.7
2023-01-31T14:44:05.636Z,1012.9